createdAt,value
2022-10-23T00:00:42.105Z,100417.04
2022-10-23T00:02:47.308Z,100417.95
2022-10-23T00:04:51.734Z,100417.89
2022-10-23T00:06:56.075Z,100408.31
2022-10-23T00:09:00.445Z,100407.23
2022-10-23T00:11:04.805Z,100405.53
2022-10-23T00:13:09.126Z,100406.02
2022-10-23T00:15:13.488Z,100405.16
2022-10-23T00:17:17.840Z,100410.3
2022-10-23T00:19:22.205Z,100403.13
2022-10-23T00:21:26.621Z,100400.13
2022-10-23T00:23:30.987Z,100406.77
2022-10-23T00:25:35.351Z,100411.17
2022-10-23T00:27:40.253Z,100414.09
2022-10-23T00:29:45.237Z,100415.33
2022-10-23T00:31:49.589Z,100416.01
2022-10-23T00:33:53.941Z,100410.42
2022-10-23T00:35:58.283Z,100407.88
2022-10-23T00:38:02.669Z,100406.95
2022-10-23T00:40:07.030Z,100407.02
2022-10-23T00:42:11.397Z,100407.73
2022-10-23T00:44:15.804Z,100406.92
2022-10-23T00:46:20.172Z,100411.58
2022-10-23T00:48:24.529Z,100405.52
2022-10-23T00:50:28.900Z,100404.51
2022-10-23T00:52:33.260Z,100405.53
2022-10-23T00:54:37.602Z,100406.45
2022-10-23T00:56:41.958Z,100404.2
2022-10-23T00:58:46.356Z,100402.98
2022-10-23T01:00:50.721Z,100405.13
2022-10-23T01:02:55.063Z,100406.66
2022-10-23T01:04:59.465Z,100413.5
2022-10-23T01:07:03.809Z,100412.14
2022-10-23T01:09:08.149Z,100417.73
2022-10-23T01:11:12.660Z,100416.2
2022-10-23T01:13:17.014Z,100420.87
2022-10-23T01:15:21.374Z,100426.08
2022-10-23T01:17:25.743Z,100422.98
2022-10-23T01:19:30.120Z,100417.64
2022-10-23T01:21:34.563Z,100422.27
2022-10-23T01:23:38.984Z,100420.44
2022-10-23T01:25:43.322Z,100423.27
2022-10-23T01:27:47.649Z,100426.16
2022-10-23T01:29:51.980Z,100423.61
2022-10-23T01:31:56.367Z,100426.23
2022-10-23T01:34:00.682Z,100423.4
2022-10-23T01:36:05.016Z,100424.15
2022-10-23T01:38:09.339Z,100419.52
2022-10-23T01:40:13.732Z,100420.51
2022-10-23T01:42:18.310Z,100419.97
2022-10-23T01:44:22.644Z,100422.42
2022-10-23T01:46:26.970Z,100425.11
2022-10-23T01:48:31.298Z,100429.6
2022-10-23T01:50:35.636Z,100433.83
2022-10-23T01:52:39.943Z,100429.91
2022-10-23T01:54:44.331Z,100431.64
2022-10-23T01:56:48.642Z,100437.7
2022-10-23T01:58:52.964Z,100435.36
2022-10-23T02:00:57.532Z,100432.27
2022-10-23T02:03:01.979Z,100432.74
2022-10-23T02:05:06.337Z,100431.8
2022-10-23T02:07:10.711Z,100427.91
2022-10-23T02:09:15.072Z,100434.89
2022-10-23T02:11:19.436Z,100433.3
2022-10-23T02:13:23.776Z,100431.52
2022-10-23T02:15:28.114Z,100437.01
2022-10-23T02:17:32.502Z,100436.02
2022-10-23T02:19:36.848Z,100439.94
2022-10-23T02:21:41.212Z,100440.98
2022-10-23T02:23:45.541Z,100449.2
2022-10-23T02:25:49.923Z,100446.61
2022-10-23T02:27:54.277Z,100440.11
2022-10-23T02:29:58.622Z,100437.72
2022-10-23T02:32:02.973Z,100434.25
2022-10-23T02:34:07.331Z,100437.55
2022-10-23T02:36:11.702Z,100438.17
2022-10-23T02:38:16.070Z,100444.6
2022-10-23T02:40:20.426Z,100447.05
2022-10-23T02:42:24.777Z,100441
2022-10-23T02:44:29.131Z,100439.23
2022-10-23T02:46:33.505Z,100441.81
2022-10-23T02:48:37.860Z,100440.93
2022-10-23T02:50:42.176Z,100440.69
2022-10-23T02:52:46.508Z,100444.03
2022-10-23T02:54:50.860Z,100439.98
2022-10-23T02:56:55.181Z,100441.84
2022-10-23T02:58:59.525Z,100441
2022-10-23T03:01:04.010Z,100443.72
2022-10-23T03:03:08.444Z,100440.83
2022-10-23T03:05:12.805Z,100443.52
2022-10-23T03:07:17.173Z,100446.04
2022-10-23T03:09:21.519Z,100446.41
2022-10-23T03:11:25.848Z,100455.6
2022-10-23T03:13:30.231Z,100451.31
2022-10-23T03:15:34.593Z,100447.98
2022-10-23T03:17:38.935Z,100448.31
2022-10-23T03:19:43.309Z,100448.59
2022-10-23T03:21:47.647Z,100446.31
2022-10-23T03:23:51.961Z,100446.65
2022-10-23T03:25:56.339Z,100444.88
2022-10-23T03:28:00.692Z,100447.4
2022-10-23T03:30:05.090Z,100448.73
2022-10-23T03:32:09.440Z,100448.76
2022-10-23T03:34:13.812Z,100446.23
2022-10-23T03:36:18.159Z,100451.69
2022-10-23T03:38:22.490Z,100451.04
2022-10-23T03:40:26.821Z,100447.56
2022-10-23T03:42:31.153Z,100451.31
2022-10-23T03:44:35.495Z,100452.53
2022-10-23T03:46:39.849Z,100455.46
2022-10-23T03:48:44.190Z,100455.56
2022-10-23T03:50:48.528Z,100454.34
2022-10-23T03:52:52.889Z,100452.47
2022-10-23T03:54:57.251Z,100450.19
2022-10-23T03:57:01.567Z,100449.41
2022-10-23T03:59:05.871Z,100446.2
2022-10-23T04:01:10.353Z,100445.45
2022-10-23T04:03:14.795Z,100448.41
2022-10-23T04:05:19.146Z,100445.19
2022-10-23T04:07:23.473Z,100447.16
2022-10-23T04:09:27.820Z,100442.8
2022-10-23T04:11:32.184Z,100438.38
2022-10-23T04:13:36.519Z,100435.86
2022-10-23T04:15:40.865Z,100432.09
2022-10-23T04:17:45.210Z,100429.16
2022-10-23T04:19:49.531Z,100426.47
2022-10-23T04:21:53.935Z,100430.05
2022-10-23T04:23:58.299Z,100430.14
2022-10-23T04:26:02.641Z,100433.24
2022-10-23T04:28:06.969Z,100431.16
2022-10-23T04:30:11.318Z,100431.67
2022-10-23T04:32:15.678Z,100433.41
2022-10-23T04:34:20.040Z,100433.34
2022-10-23T04:36:24.387Z,100435.21
2022-10-23T04:38:28.718Z,100435.28
2022-10-23T04:40:33.073Z,100437.13
2022-10-23T04:42:37.396Z,100440.05
2022-10-23T04:44:41.758Z,100439.4
2022-10-23T04:46:46.087Z,100443.11
2022-10-23T04:48:50.417Z,100449.74
2022-10-23T04:50:54.770Z,100447.7
2022-10-23T04:52:59.112Z,100455.22
2022-10-23T04:55:03.449Z,100452.56
2022-10-23T04:57:07.846Z,100458.34
2022-10-23T04:59:12.192Z,100455.36
2022-10-23T05:01:16.757Z,100457.16
2022-10-23T05:03:21.539Z,100459.7
2022-10-23T05:05:25.870Z,100458.14
2022-10-23T05:07:30.206Z,100461.85
2022-10-23T05:09:34.513Z,100463.72
2022-10-23T05:11:38.849Z,100469.41
2022-10-23T05:13:43.219Z,100465.46
2022-10-23T05:15:47.529Z,100466.62
2022-10-23T05:17:51.959Z,100467.36
2022-10-23T05:19:56.297Z,100471.11
2022-10-23T05:22:00.617Z,100473.52
2022-10-23T05:24:04.958Z,100472.16
2022-10-23T05:26:09.330Z,100474.48
2022-10-23T05:28:13.712Z,100477.67
2022-10-23T05:30:18.223Z,100476.89
2022-10-23T05:32:22.547Z,100474.88
2022-10-23T05:34:26.909Z,100474.41
2022-10-23T05:36:31.258Z,100471.75
2022-10-23T05:38:35.577Z,100471.41
2022-10-23T05:42:45.166Z,100470.83
2022-10-23T05:44:50.121Z,100471.55
2022-10-23T05:46:54.454Z,100473.15
2022-10-23T05:51:04.243Z,100474.72
2022-10-23T05:53:08.613Z,100470.83
2022-10-23T05:55:12.968Z,100465.05
2022-10-23T05:57:18.353Z,100462.4
2022-10-23T05:59:24.277Z,100466.14
2022-10-23T06:01:29.152Z,100464.37
2022-10-23T06:03:34.028Z,100462.46
2022-10-23T06:07:44.808Z,100457.73
2022-10-23T06:09:49.583Z,100455.32
2022-10-23T06:11:53.931Z,100455.39
2022-10-23T06:13:58.300Z,100459.81
2022-10-23T06:16:02.760Z,100466.31
2022-10-23T06:18:13.179Z,100473.69
2022-10-23T06:20:17.547Z,100479
2022-10-23T06:22:22.086Z,100477.67
2022-10-23T06:24:26.529Z,100482.97
2022-10-23T06:26:30.929Z,100481.72
2022-10-23T06:28:35.302Z,100485.73
2022-10-23T06:30:39.660Z,100483.08
2022-10-23T06:32:45.089Z,100479.61
2022-10-23T06:34:49.883Z,100484.95
2022-10-23T06:36:54.230Z,100486.61
2022-10-23T06:41:03.997Z,100488.69
2022-10-23T06:43:08.364Z,100489.98
2022-10-23T06:45:12.707Z,100497.47
2022-10-23T06:49:22.434Z,100499.65
2022-10-23T06:51:26.805Z,100500.47
2022-10-23T06:53:31.164Z,100507.03
2022-10-23T06:55:35.629Z,100505.47
2022-10-23T06:57:40.161Z,100502.95
2022-10-23T06:59:45.129Z,100504.63
2022-10-23T07:01:50.045Z,100502.3
2022-10-23T07:03:54.865Z,100500.37
2022-10-23T07:05:59.205Z,100498.47
2022-10-23T07:08:03.525Z,100509.19
2022-10-23T07:10:07.994Z,100504.08
2022-10-23T07:12:12.435Z,100499.77
2022-10-23T07:14:16.802Z,100493.98
2022-10-23T07:16:21.135Z,100493.09
2022-10-23T07:18:25.677Z,100491.16
2022-10-23T07:20:30.190Z,100493.88
2022-10-23T07:22:34.632Z,100493.48
2022-10-23T07:24:38.952Z,100493.95
2022-10-23T07:26:43.360Z,100494.91
2022-10-23T07:28:47.785Z,100493.82
2022-10-23T07:30:52.156Z,100495.48
2022-10-23T07:32:56.501Z,100496.3
2022-10-23T07:35:01.116Z,100496.98
2022-10-23T07:37:05.606Z,100497.22
2022-10-23T07:39:10.012Z,100500.59
2022-10-23T07:41:14.389Z,100501.99
2022-10-23T07:43:18.823Z,100500.56
2022-10-23T07:45:23.253Z,100496.54
2022-10-23T07:47:27.587Z,100495.66
2022-10-23T07:49:31.919Z,100485.75
2022-10-23T07:51:36.259Z,100484.34
2022-10-23T07:53:40.646Z,100484.48
2022-10-23T07:55:44.993Z,100490.48
2022-10-23T07:57:49.335Z,100488.22
2022-10-23T07:59:53.704Z,100496.97
2022-10-23T08:01:58.366Z,100496.63
2022-10-23T08:04:03.020Z,100499.38
2022-10-23T08:06:07.379Z,100505.13
2022-10-23T08:08:11.703Z,100506.18
2022-10-23T08:10:16.060Z,100507.98
2022-10-23T08:12:20.533Z,100509.98
2022-10-23T08:14:24.889Z,100517.38
2022-10-23T08:16:29.226Z,100519.56
2022-10-23T08:18:33.567Z,100520.96
2022-10-23T08:20:37.931Z,100522.31
2022-10-23T08:22:42.279Z,100520.17
2022-10-23T08:24:46.634Z,100520.06
2022-10-23T08:26:50.991Z,100512.67
2022-10-23T08:28:55.312Z,100516.2
2022-10-23T08:30:59.688Z,100519.2
2022-10-23T08:33:04.002Z,100516.81
2022-10-23T08:35:08.389Z,100513.59
2022-10-23T08:37:12.764Z,100514.45
2022-10-23T08:39:17.150Z,100517.86
2022-10-23T08:41:21.552Z,100519.25
2022-10-23T08:43:25.888Z,100523.16
2022-10-23T08:45:30.309Z,100517.23
2022-10-23T08:47:34.698Z,100519.61
2022-10-23T08:49:39.031Z,100521.01
2022-10-23T08:51:43.369Z,100523.25
2022-10-23T08:53:47.758Z,100523.1
2022-10-23T08:55:52.071Z,100529.03
2022-10-23T08:57:56.439Z,100529.64
2022-10-23T09:00:00.795Z,100530.55
2022-10-23T09:02:05.618Z,100532.94
2022-10-23T09:04:10.474Z,100530.58
2022-10-23T09:06:14.818Z,100528.29
2022-10-23T09:08:19.189Z,100531.19
2022-10-23T09:10:23.568Z,100529.04
2022-10-23T09:12:27.917Z,100527.72
2022-10-23T09:14:32.280Z,100530.55
2022-10-23T09:16:36.665Z,100530.52
2022-10-23T09:18:41.041Z,100530.64
2022-10-23T09:20:45.406Z,100530.05
2022-10-23T09:22:49.771Z,100530.39
2022-10-23T09:24:55.107Z,100527
2022-10-23T09:26:59.528Z,100525.11
2022-10-23T09:29:04.052Z,100527.11
2022-10-23T09:31:08.528Z,100528.27
2022-10-23T09:33:12.992Z,100527.13
2022-10-23T09:35:17.316Z,100528.05
2022-10-23T09:37:22.526Z,100525.45
2022-10-23T09:39:26.901Z,100527.55
2022-10-23T09:41:31.238Z,100530.16
2022-10-23T09:43:35.662Z,100527.01
2022-10-23T09:45:40.133Z,100528.13
2022-10-23T09:47:45.240Z,100529.03
2022-10-23T09:49:49.701Z,100530.73
2022-10-23T09:51:54.067Z,100530.45
2022-10-23T09:53:58.678Z,100532.25
2022-10-23T09:56:03.029Z,100526.92
2022-10-23T09:58:07.401Z,100521.18
2022-10-23T10:00:11.745Z,100516.23
2022-10-23T10:02:16.418Z,100517.02
2022-10-23T10:04:21.053Z,100519.48
2022-10-23T10:06:25.484Z,100513.92
2022-10-23T10:08:29.933Z,100517.03
2022-10-23T10:10:34.306Z,100515.98
2022-10-23T10:12:38.642Z,100513.09
2022-10-23T10:14:43.012Z,100511.04
2022-10-23T10:16:47.360Z,100513.25
2022-10-23T10:18:51.816Z,100514.33
2022-10-23T10:20:56.214Z,100513.36
2022-10-23T10:23:00.586Z,100520.23
2022-10-23T10:25:04.996Z,100506.99
2022-10-23T10:27:09.362Z,100504.8
2022-10-23T10:29:13.750Z,100498.22
2022-10-23T10:31:18.152Z,100491.25
2022-10-23T10:33:22.522Z,100491.6
2022-10-23T10:35:26.867Z,100493.05
2022-10-23T10:37:31.251Z,100488.58
2022-10-23T10:39:35.624Z,100486.36
2022-10-23T10:41:39.989Z,100488.08
2022-10-23T10:43:44.330Z,100485.02
2022-10-23T10:45:48.684Z,100482.47
2022-10-23T10:47:53.198Z,100479.38
2022-10-23T10:49:57.488Z,100475.34
2022-10-23T10:52:01.871Z,100476.05
2022-10-23T10:54:06.343Z,100475.64
2022-10-23T10:58:15.280Z,100465.16
2022-10-23T11:00:19.703Z,100462.92
2022-10-23T11:02:24.233Z,100460.19
2022-10-23T11:04:28.699Z,100459.25
2022-10-23T11:06:33.172Z,100456.89
2022-10-23T11:08:57.832Z,100453.06
2022-10-23T11:11:23.060Z,100454.88
2022-10-23T11:13:27.430Z,100448.8
2022-10-23T11:15:31.813Z,100444.81
2022-10-23T11:17:36.164Z,100447.52
2022-10-23T11:19:40.544Z,100443.7
2022-10-23T11:21:44.848Z,100439.8
2022-10-23T11:23:49.181Z,100440.72
2022-10-23T11:25:53.671Z,100446.01
2022-10-23T11:28:06.252Z,100447.55
2022-10-23T11:30:14.371Z,100438.96
2022-10-23T11:32:18.765Z,100439.36
2022-10-23T11:34:23.085Z,100443.64
2022-10-23T11:36:27.474Z,100450.53
2022-10-23T11:38:31.833Z,100446.88
2022-10-23T11:45:12.440Z,100432.2
2022-10-23T11:47:16.863Z,100431.17
2022-10-23T11:49:21.204Z,100432.08
2022-10-23T11:51:25.574Z,100423.11
2022-10-23T11:53:30.031Z,100425.72
2022-10-23T11:55:34.385Z,100423.97
2022-10-23T11:57:38.808Z,100413.95
2022-10-23T11:59:43.165Z,100413.82
2022-10-23T12:01:47.894Z,100409.45
2022-10-23T12:03:52.443Z,100402.29
2022-10-23T12:05:56.797Z,100398.82
2022-10-23T12:08:01.169Z,100398.53
2022-10-23T12:10:05.595Z,100391.42
2022-10-23T12:12:09.956Z,100395.3
2022-10-23T12:14:14.432Z,100394.56
2022-10-23T12:16:18.825Z,100385.59
2022-10-23T12:18:23.168Z,100384.18
2022-10-23T12:20:27.565Z,100376.25
2022-10-23T12:22:32.201Z,100374.05
2022-10-23T12:24:36.600Z,100370.56
2022-10-23T12:26:40.985Z,100365.75
2022-10-23T12:28:45.317Z,100363.09
2022-10-23T12:30:49.789Z,100360.51
2022-10-23T12:32:54.307Z,100359.91
2022-10-23T12:34:58.680Z,100354.24
2022-10-23T12:37:03.077Z,100353.27
2022-10-23T12:39:07.567Z,100348.8
2022-10-23T12:41:12.091Z,100345.65
2022-10-23T12:43:16.450Z,100342.41
2022-10-23T12:45:20.816Z,100342.8
2022-10-23T12:47:25.233Z,100340.23
2022-10-23T12:49:29.595Z,100334.85
2022-10-23T12:51:33.966Z,100331.45
2022-10-23T12:53:38.330Z,100332.01
2022-10-23T12:55:42.695Z,100329.84
2022-10-23T12:57:47.470Z,100335.88
2022-10-23T12:59:51.839Z,100332.03
2022-10-23T13:01:56.496Z,100330.11
2022-10-23T13:04:01.049Z,100332.95
2022-10-23T13:06:05.525Z,100331.05
2022-10-23T13:08:09.893Z,100329.85
2022-10-23T13:10:14.244Z,100325.5
2022-10-23T13:12:18.583Z,100324.47
2022-10-23T13:14:22.893Z,100325.16
2022-10-23T13:16:27.232Z,100324.94
2022-10-23T13:18:31.626Z,100324.06
2022-10-23T13:20:36.120Z,100318.31
2022-10-23T13:22:40.698Z,100321.29
2022-10-23T13:24:45.601Z,100314.63
2022-10-23T13:26:49.941Z,100307.41
2022-10-23T13:28:54.292Z,100306.59
2022-10-23T13:30:58.654Z,100305.16
2022-10-23T13:33:03.054Z,100308.14
2022-10-23T13:35:22.852Z,100305.31
2022-10-23T13:37:27.237Z,100305.64
2022-10-23T13:39:31.948Z,100305.67
2022-10-23T13:41:36.347Z,100314.05
2022-10-23T13:43:40.770Z,100308.99
2022-10-23T13:45:45.097Z,100308.28
2022-10-23T13:47:49.427Z,100304.88
2022-10-23T13:49:53.807Z,100303.42
2022-10-23T13:51:58.169Z,100300.3
2022-10-23T13:54:02.537Z,100296.65
2022-10-23T13:56:06.915Z,100292.63
2022-10-23T13:58:11.367Z,100293.63
2022-10-23T14:00:15.774Z,100294.97
2022-10-23T14:02:20.585Z,100295.34
2022-10-23T14:04:25.378Z,100291.36
2022-10-23T14:06:29.768Z,100292.8
2022-10-23T14:08:34.112Z,100296.84
2022-10-23T14:10:38.547Z,100298.19
2022-10-23T14:12:43.767Z,100296.73
2022-10-23T14:14:49.026Z,100300.24
2022-10-23T14:16:53.398Z,100301.81
2022-10-23T14:18:57.747Z,100303.59
2022-10-23T14:21:02.239Z,100302.9
2022-10-23T14:23:06.641Z,100299.12
2022-10-23T14:25:10.977Z,100292.52
2022-10-23T14:27:15.343Z,100293
2022-10-23T14:29:25.150Z,100293.55
2022-10-23T14:31:29.485Z,100295.61
2022-10-23T14:33:33.864Z,100299.19
2022-10-23T14:35:38.275Z,100299.56
2022-10-23T14:37:43.375Z,100294.69
2022-10-23T14:39:51.230Z,100294.92
2022-10-23T14:41:55.627Z,100294.33
2022-10-23T14:43:59.995Z,100288.41
2022-10-23T14:46:04.380Z,100289.77
2022-10-23T14:48:08.734Z,100279.77
2022-10-23T14:50:13.095Z,100281.14
2022-10-23T14:52:17.487Z,100273.94
2022-10-23T14:54:21.824Z,100274.66
2022-10-23T14:56:26.189Z,100270.93
2022-10-23T14:58:30.570Z,100271.28
2022-10-23T15:00:34.993Z,100265.09
2022-10-23T15:02:39.358Z,100272.81
2022-10-23T15:04:43.984Z,100267.72
2022-10-23T15:06:48.341Z,100266.58
2022-10-23T15:08:52.685Z,100264.98
2022-10-23T15:10:57.059Z,100260.27
2022-10-23T15:13:01.401Z,100260.02
2022-10-23T15:15:05.794Z,100265.63
2022-10-23T15:17:16.385Z,100260.55
2022-10-23T15:19:20.749Z,100258.92
2022-10-23T15:21:25.125Z,100256.57
2022-10-23T15:23:29.505Z,100260.89
2022-10-23T15:25:33.906Z,100257.34
2022-10-23T15:27:38.249Z,100257.69
2022-10-23T15:29:42.650Z,100256.11
2022-10-23T15:31:47.058Z,100250.22
2022-10-23T15:33:51.492Z,100249.67
2022-10-23T15:35:55.799Z,100249.3
2022-10-23T15:38:00.146Z,100254.75
2022-10-23T15:40:04.633Z,100252.75
2022-10-23T15:42:08.963Z,100251.48
2022-10-23T15:44:13.344Z,100248.67
2022-10-23T15:46:17.743Z,100249.58
2022-10-23T15:48:22.107Z,100250.63
2022-10-23T15:50:26.484Z,100253.32
2022-10-23T15:52:30.848Z,100257.27
2022-10-23T15:54:35.192Z,100265.98
2022-10-23T15:56:39.570Z,100264.8
2022-10-23T15:58:43.930Z,100264.53
2022-10-23T16:00:48.330Z,100263.41
2022-10-23T16:02:52.639Z,100269.41
2022-10-23T16:04:57.010Z,100270.17
2022-10-23T16:07:01.386Z,100270.45
2022-10-23T16:09:05.767Z,100269.44
2022-10-23T16:11:10.158Z,100269.3
2022-10-23T16:13:14.528Z,100272.33
2022-10-23T16:15:18.900Z,100272.56
2022-10-23T16:17:23.263Z,100278.59
2022-10-23T16:19:27.632Z,100281.45
2022-10-23T16:21:31.973Z,100285.85
2022-10-23T16:23:36.341Z,100283
2022-10-23T16:25:40.725Z,100283.52
2022-10-23T16:27:45.987Z,100286.12
2022-10-23T16:29:50.797Z,100282.94
2022-10-23T16:31:55.173Z,100285.41
2022-10-23T16:33:59.691Z,100282.02
2022-10-23T16:36:04.064Z,100274.97
2022-10-23T16:38:08.441Z,100273.47
2022-10-23T16:40:12.849Z,100273.8
2022-10-23T16:44:22.704Z,100267
2022-10-23T16:46:27.061Z,100263.47
2022-10-23T16:48:31.409Z,100263.81
2022-10-23T16:50:35.858Z,100261.25
2022-10-23T16:52:40.323Z,100264.48
2022-10-23T16:54:45.202Z,100265.64
2022-10-23T16:56:49.551Z,100267.53
2022-10-23T16:58:54.064Z,100261.55
2022-10-23T17:00:58.993Z,100260.77
2022-10-23T17:03:03.642Z,100258.53
2022-10-23T17:05:08.076Z,100261.51
2022-10-23T17:07:12.610Z,100258.24
2022-10-23T17:09:17.061Z,100254.89
2022-10-23T17:11:21.443Z,100259.34
2022-10-23T17:13:25.789Z,100257.67
2022-10-23T17:15:30.331Z,100253.66
2022-10-23T17:17:34.805Z,100248.59
2022-10-23T17:19:47.691Z,100246.75
2022-10-23T17:21:52.037Z,100247.95
2022-10-23T17:23:56.478Z,100248.3
2022-10-23T17:26:01.440Z,100248.66
2022-10-23T17:28:05.773Z,100249.29
2022-10-23T17:30:13.670Z,100256.41
2022-10-23T17:32:18.240Z,100257.38
2022-10-23T17:34:22.596Z,100258.12
2022-10-23T17:36:27.003Z,100257.73
2022-10-23T17:38:31.344Z,100252.81
2022-10-23T17:40:35.851Z,100254.3
2022-10-23T17:42:40.269Z,100259.73
2022-10-23T17:44:44.934Z,100253.16
2022-10-23T17:46:49.332Z,100243.1
2022-10-23T17:48:53.858Z,100234.06
2022-10-23T17:50:58.295Z,100232.43
2022-10-23T17:53:02.694Z,100227.55
2022-10-23T17:55:07.061Z,100222.64
2022-10-23T17:57:11.549Z,100219.17
2022-10-23T17:59:15.992Z,100222.78
2022-10-23T18:01:20.488Z,100216.97
2022-10-23T18:03:25.047Z,100218.38
2022-10-23T18:05:29.594Z,100220.35
2022-10-23T18:07:33.982Z,100215.47
2022-10-23T18:09:38.352Z,100214.7
2022-10-23T18:11:47.959Z,100216.55
2022-10-23T18:13:52.786Z,100212.22
2022-10-23T18:15:57.251Z,100204.69
2022-10-23T18:18:01.605Z,100203.61
2022-10-23T18:20:06.170Z,100204.8
2022-10-23T18:22:10.697Z,100203.23
2022-10-23T18:24:15.163Z,100205.53
2022-10-23T18:26:19.451Z,100210.13
2022-10-23T18:28:23.757Z,100208.52
2022-10-23T18:30:28.157Z,100209.26
2022-10-23T18:32:32.518Z,100208.98
2022-10-23T18:34:36.807Z,100200.75
2022-10-23T18:36:41.107Z,100199.61
2022-10-23T18:38:45.540Z,100195.23
2022-10-23T18:40:50.077Z,100200
2022-10-23T18:42:54.448Z,100199.33
2022-10-23T18:44:58.940Z,100198.76
2022-10-23T18:47:03.478Z,100192.31
2022-10-23T18:49:07.958Z,100191.81
2022-10-23T18:51:16.108Z,100196.46
2022-10-23T18:53:20.632Z,100194.88
2022-10-23T18:55:25.174Z,100192.06
2022-10-23T18:57:29.721Z,100194.86
2022-10-23T18:59:34.108Z,100187.48
2022-10-23T19:01:38.847Z,100193.12
2022-10-23T19:03:43.567Z,100192.88
2022-10-23T19:05:47.999Z,100187.56
2022-10-23T19:07:52.437Z,100186.62
2022-10-23T19:09:56.803Z,100179.44
2022-10-23T19:12:01.256Z,100172.24
2022-10-23T19:14:05.875Z,100167.6
2022-10-23T19:16:10.218Z,100160.16
2022-10-23T19:18:14.619Z,100159.36
2022-10-23T19:20:19.203Z,100152.63
2022-10-23T19:22:23.787Z,100148.2
2022-10-23T19:24:28.226Z,100152.92
2022-10-23T19:26:32.580Z,100157.37
2022-10-23T19:28:38.960Z,100164.45
2022-10-23T19:30:43.425Z,100165.54
2022-10-23T19:32:47.877Z,100164.3
2022-10-23T19:34:52.240Z,100155.5
2022-10-23T19:36:56.637Z,100156.31
2022-10-23T19:39:00.978Z,100158.39
2022-10-23T19:41:05.326Z,100160.34
2022-10-23T19:43:09.778Z,100149.25
2022-10-23T19:45:14.139Z,100150.87
2022-10-23T19:47:18.513Z,100149.14
2022-10-23T19:49:22.906Z,100136.84
2022-10-23T19:51:27.385Z,100145.3
2022-10-23T19:53:31.885Z,100143.88
2022-10-23T19:55:36.257Z,100156.33
2022-10-23T19:57:40.636Z,100149.84
2022-10-23T19:59:45.687Z,100141.12
2022-10-23T20:01:50.740Z,100129.88
2022-10-23T20:03:55.397Z,100130.73
2022-10-23T20:05:59.761Z,100133.51
2022-10-23T20:08:04.144Z,100140.77
2022-10-23T20:10:08.526Z,100141.08
2022-10-23T20:12:12.877Z,100131.79
2022-10-23T20:14:17.253Z,100127.27
2022-10-23T20:16:21.653Z,100110.55
2022-10-23T20:18:26.047Z,100109.96
2022-10-23T20:20:30.474Z,100112.15
2022-10-23T20:22:34.842Z,100117.8
2022-10-23T20:24:39.214Z,100117.67
2022-10-23T20:26:43.583Z,100115.39
2022-10-23T20:28:48.054Z,100111.94
2022-10-23T20:30:52.458Z,100105.57
2022-10-23T20:32:56.779Z,100098.71
2022-10-23T20:35:01.243Z,100097.48
2022-10-23T20:37:05.574Z,100095.03
2022-10-23T20:39:09.935Z,100090.69
2022-10-23T20:41:14.324Z,100089.66
2022-10-23T20:43:18.689Z,100087.57
2022-10-23T20:45:23.031Z,100093.08
2022-10-23T20:47:27.460Z,100097.57
2022-10-23T20:49:31.827Z,100098.64
2022-10-23T20:51:36.191Z,100105.34
2022-10-23T20:53:40.563Z,100108.01
2022-10-23T20:55:44.909Z,100110.39
2022-10-23T20:57:49.282Z,100108.97
2022-10-23T20:59:53.633Z,100107.09
2022-10-23T21:01:58.583Z,100098.32
2022-10-23T21:04:03.186Z,100098.66
2022-10-23T21:06:07.585Z,100090.45
2022-10-23T21:08:11.954Z,100080.13
2022-10-23T21:10:16.325Z,100079.38
2022-10-23T21:12:20.715Z,100080.2
2022-10-23T21:14:25.101Z,100081.22
2022-10-23T21:16:29.736Z,100079.86
2022-10-23T21:18:47.223Z,100082.35
2022-10-23T21:20:51.777Z,100084.94
2022-10-23T21:22:56.134Z,100082.95
2022-10-23T21:25:00.759Z,100082.68
2022-10-23T21:27:05.124Z,100079.61
2022-10-23T21:29:24.417Z,100077.87
2022-10-23T21:31:28.866Z,100069.21
2022-10-23T21:33:33.222Z,100058.27
2022-10-23T21:35:52.176Z,100053.88
2022-10-23T21:38:16.345Z,100048.53
2022-10-23T21:40:20.718Z,100050.26
2022-10-23T21:42:25.269Z,100056.77
2022-10-23T21:44:29.815Z,100061.41
2022-10-23T21:46:34.182Z,100062.56
2022-10-23T21:48:38.533Z,100055.57
2022-10-23T21:50:43.045Z,100045.28
2022-10-23T21:52:48.088Z,100040.14
2022-10-23T21:54:52.438Z,100039.05
2022-10-23T21:56:56.799Z,100033.59
2022-10-23T21:59:01.275Z,100026.95
2022-10-23T22:01:06.196Z,100025.76
2022-10-23T22:03:10.845Z,100021.13
2022-10-23T22:05:15.194Z,100015
2022-10-23T22:07:19.675Z,100014.95
2022-10-23T22:09:24.190Z,100010.45
2022-10-23T22:11:28.552Z,100015.43
2022-10-23T22:13:32.903Z,100026.61
2022-10-23T22:15:37.421Z,100026.17
2022-10-23T22:17:42.090Z,100022.18
2022-10-23T22:19:47.254Z,100011.92
2022-10-23T22:21:51.623Z,100008.84
2022-10-23T22:23:56.142Z,100005.83
2022-10-23T22:26:00.722Z,99998.36
2022-10-23T22:28:05.020Z,99999.95
2022-10-23T22:30:09.361Z,99996.59
2022-10-23T22:32:13.841Z,99991.61
2022-10-23T22:37:10.252Z,99993.2
2022-10-23T22:39:14.576Z,99982.2
2022-10-23T22:41:18.879Z,99988.23
2022-10-23T22:43:23.175Z,99984.95
2022-10-23T22:45:27.462Z,99977.36
2022-10-23T22:47:31.752Z,99986.69
2022-10-23T22:49:36.061Z,99987.82
2022-10-23T22:51:40.341Z,99985.56
2022-10-23T22:53:44.650Z,99995.69
2022-10-23T22:55:48.990Z,100004.14
2022-10-23T22:57:53.301Z,100003.56
2022-10-23T22:59:57.676Z,100000.16
2022-10-23T23:02:02.028Z,100002.98
2022-10-23T23:04:42.528Z,100003.84
2022-10-23T23:06:46.955Z,100010.45
2022-10-23T23:08:51.328Z,100000.43
2022-10-23T23:10:55.706Z,100005.95
2022-10-23T23:13:00.073Z,100012.73
2022-10-23T23:15:04.529Z,100005.22
2022-10-23T23:17:09.011Z,100003.14
2022-10-23T23:19:13.383Z,99996.77
2022-10-23T23:21:17.725Z,100005.77
2022-10-23T23:23:22.082Z,100013.67
2022-10-23T23:25:26.421Z,100020.33
2022-10-23T23:27:30.823Z,100023.06
2022-10-23T23:29:35.188Z,100025.83
2022-10-23T23:31:39.529Z,100022.76
2022-10-23T23:33:43.967Z,100021.84
2022-10-23T23:35:48.331Z,100019.56
2022-10-23T23:37:52.692Z,100015.85
2022-10-23T23:39:57.063Z,100016.74
2022-10-23T23:42:01.468Z,100008.7
2022-10-23T23:44:05.846Z,100013.66
2022-10-23T23:46:10.181Z,100013.18
2022-10-23T23:48:14.571Z,100015.88
2022-10-23T23:50:19.017Z,100016.59
2022-10-23T23:52:23.424Z,100012.8
2022-10-23T23:54:27.763Z,100022.25
2022-10-23T23:56:32.106Z,100028.59
2022-10-23T23:58:36.416Z,100035.05
